sensor_id;sensor_type;location;lat;lon;timestamp;P1;durP1;ratioP1;P2;durP2;ratioP2
22829;SDS011;11581;51.250;6.778;2023-06-10T00:01:34;7.68;;;3.30;;
22829;SDS011;11581;51.250;6.778;2023-06-10T00:04:01;4.93;;;3.00;;
22829;SDS011;11581;51.250;6.778;2023-06-10T00:06:29;8.23;;;3.00;;
22829;SDS011;11581;51.250;6.778;2023-06-10T00:09:01;4.13;;;2.97;;
22829;SDS011;11581;51.250;6.778;2023-06-10T00:11:30;4.15;;;2.83;;
22829;SDS011;11581;51.250;6.778;2023-06-10T00:13:57;4.28;;;2.92;;
22829;SDS011;11581;51.250;6.778;2023-06-10T00:16:24;4.07;;;3.13;;
22829;SDS011;11581;51.250;6.778;2023-06-10T00:18:52;4.03;;;2.83;;
22829;SDS011;11581;51.250;6.778;2023-06-10T00:21:21;4.00;;;2.60;;
22829;SDS011;11581;51.250;6.778;2023-06-10T00:23:49;4.35;;;2.95;;
22829;SDS011;11581;51.250;6.778;2023-06-10T00:26:16;5.18;;;2.88;;
22829;SDS011;11581;51.250;6.778;2023-06-10T00:28:44;4.40;;;2.88;;
22829;SDS011;11581;51.250;6.778;2023-06-10T00:31:11;5.43;;;3.03;;
22829;SDS011;11581;51.250;6.778;2023-06-10T00:33:38;4.32;;;3.00;;
22829;SDS011;11581;51.250;6.778;2023-06-10T00:36:06;4.57;;;2.95;;
22829;SDS011;11581;51.250;6.778;2023-06-10T00:38:33;3.97;;;2.80;;
22829;SDS011;11581;51.250;6.778;2023-06-10T00:40:59;4.30;;;3.40;;
22829;SDS011;11581;51.250;6.778;2023-06-10T00:43:26;5.22;;;2.92;;
22829;SDS011;11581;51.250;6.778;2023-06-10T00:45:53;7.68;;;3.70;;
22829;SDS011;11581;51.250;6.778;2023-06-10T00:48:19;13.93;;;3.50;;
22829;SDS011;11581;51.250;6.778;2023-06-10T00:50:46;4.57;;;3.13;;
22829;SDS011;11581;51.250;6.778;2023-06-10T00:53:14;5.18;;;3.13;;
22829;SDS011;11581;51.250;6.778;2023-06-10T00:55:42;7.78;;;2.90;;
22829;SDS011;11581;51.250;6.778;2023-06-10T00:58:09;3.72;;;2.83;;
22829;SDS011;11581;51.250;6.778;2023-06-10T01:00:36;4.55;;;3.13;;
22829;SDS011;11581;51.250;6.778;2023-06-10T01:03:03;5.15;;;3.17;;
22829;SDS011;11581;51.250;6.778;2023-06-10T01:05:32;4.05;;;2.85;;
22829;SDS011;11581;51.250;6.778;2023-06-10T01:08:00;5.25;;;3.05;;
22829;SDS011;11581;51.250;6.778;2023-06-10T01:10:32;4.47;;;2.92;;
22829;SDS011;11581;51.250;6.778;2023-06-10T01:13:02;4.45;;;3.20;;
22829;SDS011;11581;51.250;6.778;2023-06-10T01:15:33;3.53;;;2.67;;
22829;SDS011;11581;51.250;6.778;2023-06-10T01:18:02;6.60;;;3.30;;
22829;SDS011;11581;51.250;6.778;2023-06-10T01:20:30;6.30;;;3.20;;
22829;SDS011;11581;51.250;6.778;2023-06-10T01:23:00;5.57;;;3.30;;
22829;SDS011;11581;51.250;6.778;2023-06-10T01:25:28;5.82;;;3.08;;
22829;SDS011;11581;51.250;6.778;2023-06-10T01:27:59;4.35;;;2.92;;
22829;SDS011;11581;51.250;6.778;2023-06-10T01:30:32;4.55;;;2.83;;
22829;SDS011;11581;51.250;6.778;2023-06-10T01:33:07;6.55;;;3.42;;
22829;SDS011;11581;51.250;6.778;2023-06-10T01:35:37;4.65;;;2.85;;
22829;SDS011;11581;51.250;6.778;2023-06-10T01:38:05;4.93;;;3.13;;
22829;SDS011;11581;51.250;6.778;2023-06-10T01:40:33;7.13;;;3.40;;
22829;SDS011;11581;51.250;6.778;2023-06-10T01:43:00;4.57;;;2.90;;
22829;SDS011;11581;51.250;6.778;2023-06-10T01:45:28;4.82;;;3.08;;
22829;SDS011;11581;51.250;6.778;2023-06-10T01:47:54;5.47;;;2.97;;
22829;SDS011;11581;51.250;6.778;2023-06-10T01:50:21;6.80;;;3.60;;
22829;SDS011;11581;51.250;6.778;2023-06-10T01:52:47;4.35;;;3.00;;
22829;SDS011;11581;51.250;6.778;2023-06-10T01:55:15;5.57;;;3.10;;
22829;SDS011;11581;51.250;6.778;2023-06-10T01:57:42;4.25;;;3.15;;
22829;SDS011;11581;51.250;6.778;2023-06-10T02:00:09;5.85;;;2.95;;
22829;SDS011;11581;51.250;6.778;2023-06-10T02:02:43;4.45;;;2.80;;
22829;SDS011;11581;51.250;6.778;2023-06-10T02:05:10;6.18;;;3.22;;
22829;SDS011;11581;51.250;6.778;2023-06-10T02:07:37;4.32;;;3.10;;
22829;SDS011;11581;51.250;6.778;2023-06-10T02:10:04;4.45;;;3.00;;
22829;SDS011;11581;51.250;6.778;2023-06-10T02:12:33;4.53;;;2.90;;
22829;SDS011;11581;51.250;6.778;2023-06-10T02:15:00;5.70;;;3.35;;
22829;SDS011;11581;51.250;6.778;2023-06-10T02:17:26;5.88;;;3.88;;
22829;SDS011;11581;51.250;6.778;2023-06-10T02:19:53;6.22;;;3.70;;
22829;SDS011;11581;51.250;6.778;2023-06-10T02:22:20;4.47;;;3.50;;
22829;SDS011;11581;51.250;6.778;2023-06-10T02:24:48;5.43;;;3.67;;
22829;SDS011;11581;51.250;6.778;2023-06-10T02:27:15;4.35;;;3.22;;
22829;SDS011;11581;51.250;6.778;2023-06-10T02:29:44;4.38;;;3.38;;
22829;SDS011;11581;51.250;6.778;2023-06-10T02:32:10;4.90;;;3.40;;
22829;SDS011;11581;51.250;6.778;2023-06-10T02:34:39;4.60;;;3.10;;
22829;SDS011;11581;51.250;6.778;2023-06-10T02:37:08;4.90;;;3.05;;
22829;SDS011;11581;51.250;6.778;2023-06-10T02:39:35;5.85;;;3.75;;
22829;SDS011;11581;51.250;6.778;2023-06-10T02:42:05;6.03;;;3.97;;
22829;SDS011;11581;51.250;6.778;2023-06-10T02:44:33;4.10;;;2.97;;
22829;SDS011;11581;51.250;6.778;2023-06-10T02:47:01;6.65;;;3.70;;
22829;SDS011;11581;51.250;6.778;2023-06-10T02:49:27;5.75;;;3.70;;
22829;SDS011;11581;51.250;6.778;2023-06-10T02:51:55;4.68;;;3.40;;
22829;SDS011;11581;51.250;6.778;2023-06-10T02:54:23;5.15;;;3.78;;
22829;SDS011;11581;51.250;6.778;2023-06-10T02:56:51;5.20;;;3.17;;
22829;SDS011;11581;51.250;6.778;2023-06-10T02:59:22;6.40;;;4.07;;
22829;SDS011;11581;51.250;6.778;2023-06-10T03:01:49;4.78;;;3.35;;
22829;SDS011;11581;51.250;6.778;2023-06-10T03:04:17;5.57;;;3.35;;
22829;SDS011;11581;51.250;6.778;2023-06-10T03:06:53;6.47;;;3.55;;
22829;SDS011;11581;51.250;6.778;2023-06-10T03:09:26;4.72;;;3.25;;
22829;SDS011;11581;51.250;6.778;2023-06-10T03:11:56;5.32;;;3.38;;
22829;SDS011;11581;51.250;6.778;2023-06-10T03:14:23;5.45;;;3.20;;
22829;SDS011;11581;51.250;6.778;2023-06-10T03:16:52;4.18;;;2.92;;
22829;SDS011;11581;51.250;6.778;2023-06-10T03:19:22;5.13;;;3.00;;
22829;SDS011;11581;51.250;6.778;2023-06-10T03:21:57;6.20;;;3.20;;
22829;SDS011;11581;51.250;6.778;2023-06-10T03:24:33;4.82;;;3.10;;
22829;SDS011;11581;51.250;6.778;2023-06-10T03:27:03;4.32;;;3.40;;
22829;SDS011;11581;51.250;6.778;2023-06-10T03:29:31;4.68;;;3.22;;
22829;SDS011;11581;51.250;6.778;2023-06-10T03:31:58;4.25;;;3.53;;
22829;SDS011;11581;51.250;6.778;2023-06-10T03:34:27;5.57;;;3.38;;
22829;SDS011;11581;51.250;6.778;2023-06-10T03:36:55;4.85;;;3.25;;
22829;SDS011;11581;51.250;6.778;2023-06-10T03:39:22;5.20;;;3.00;;
22829;SDS011;11581;51.250;6.778;2023-06-10T03:41:49;9.18;;;3.45;;
22829;SDS011;11581;51.250;6.778;2023-06-10T03:44:16;4.53;;;3.30;;
22829;SDS011;11581;51.250;6.778;2023-06-10T03:46:42;5.55;;;3.83;;
22829;SDS011;11581;51.250;6.778;2023-06-10T03:49:09;5.38;;;3.50;;
22829;SDS011;11581;51.250;6.778;2023-06-10T03:51:38;5.95;;;3.60;;
22829;SDS011;11581;51.250;6.778;2023-06-10T03:54:04;4.65;;;3.00;;
22829;SDS011;11581;51.250;6.778;2023-06-10T03:56:31;5.05;;;3.70;;
22829;SDS011;11581;51.250;6.778;2023-06-10T03:58:58;5.97;;;3.72;;
22829;SDS011;11581;51.250;6.778;2023-06-10T04:01:26;5.28;;;3.55;;
22829;SDS011;11581;51.250;6.778;2023-06-10T04:03:54;4.93;;;3.60;;
22829;SDS011;11581;51.250;6.778;2023-06-10T04:06:21;6.00;;;3.05;;
22829;SDS011;11581;51.250;6.778;2023-06-10T04:08:53;5.75;;;3.50;;
22829;SDS011;11581;51.250;6.778;2023-06-10T04:11:21;5.03;;;3.53;;
22829;SDS011;11581;51.250;6.778;2023-06-10T04:13:48;5.57;;;3.38;;
22829;SDS011;11581;51.250;6.778;2023-06-10T04:16:15;6.60;;;4.13;;
22829;SDS011;11581;51.250;6.778;2023-06-10T04:18:42;6.38;;;3.25;;
22829;SDS011;11581;51.250;6.778;2023-06-10T04:21:10;4.70;;;3.65;;
22829;SDS011;11581;51.250;6.778;2023-06-10T04:23:37;5.57;;;3.42;;
22829;SDS011;11581;51.250;6.778;2023-06-10T04:26:05;6.03;;;3.95;;
22829;SDS011;11581;51.250;6.778;2023-06-10T04:28:33;5.57;;;3.67;;
22829;SDS011;11581;51.250;6.778;2023-06-10T04:31:01;5.70;;;3.70;;
22829;SDS011;11581;51.250;6.778;2023-06-10T04:33:29;5.20;;;3.35;;
22829;SDS011;11581;51.250;6.778;2023-06-10T04:35:57;5.55;;;3.72;;
22829;SDS011;11581;51.250;6.778;2023-06-10T04:38:26;5.38;;;3.28;;
22829;SDS011;11581;51.250;6.778;2023-06-10T04:40:53;7.28;;;3.63;;
22829;SDS011;11581;51.250;6.778;2023-06-10T04:43:22;4.07;;;3.30;;
22829;SDS011;11581;51.250;6.778;2023-06-10T04:45:50;7.57;;;4.13;;
22829;SDS011;11581;51.250;6.778;2023-06-10T04:48:17;6.68;;;4.07;;
22829;SDS011;11581;51.250;6.778;2023-06-10T04:50:44;7.57;;;3.88;;
22829;SDS011;11581;51.250;6.778;2023-06-10T04:53:11;6.50;;;4.03;;
22829;SDS011;11581;51.250;6.778;2023-06-10T04:55:41;8.43;;;3.65;;
22829;SDS011;11581;51.250;6.778;2023-06-10T04:58:09;6.00;;;3.92;;
22829;SDS011;11581;51.250;6.778;2023-06-10T05:00:37;5.88;;;3.63;;
22829;SDS011;11581;51.250;6.778;2023-06-10T05:03:03;6.70;;;3.42;;
22829;SDS011;11581;51.250;6.778;2023-06-10T05:05:30;4.63;;;3.22;;
22829;SDS011;11581;51.250;6.778;2023-06-10T05:07:57;6.88;;;3.40;;
22829;SDS011;11581;51.250;6.778;2023-06-10T05:10:23;4.78;;;3.42;;
22829;SDS011;11581;51.250;6.778;2023-06-10T05:12:50;6.78;;;3.15;;
22829;SDS011;11581;51.250;6.778;2023-06-10T05:15:17;4.82;;;3.38;;
22829;SDS011;11581;51.250;6.778;2023-06-10T05:17:45;4.07;;;3.13;;
22829;SDS011;11581;51.250;6.778;2023-06-10T05:20:12;5.30;;;3.00;;
22829;SDS011;11581;51.250;6.778;2023-06-10T05:22:38;4.10;;;3.20;;
22829;SDS011;11581;51.250;6.778;2023-06-10T05:25:06;4.75;;;3.25;;
22829;SDS011;11581;51.250;6.778;2023-06-10T05:27:33;6.50;;;3.10;;
22829;SDS011;11581;51.250;6.778;2023-06-10T05:30:00;4.47;;;2.78;;
22829;SDS011;11581;51.250;6.778;2023-06-10T05:32:26;4.60;;;3.08;;
22829;SDS011;11581;51.250;6.778;2023-06-10T05:34:54;7.50;;;3.55;;
22829;SDS011;11581;51.250;6.778;2023-06-10T05:37:21;5.68;;;3.00;;
22829;SDS011;11581;51.250;6.778;2023-06-10T05:39:47;4.05;;;2.70;;
22829;SDS011;11581;51.250;6.778;2023-06-10T05:42:14;4.85;;;3.13;;
22829;SDS011;11581;51.250;6.778;2023-06-10T05:44:40;5.53;;;3.30;;
22829;SDS011;11581;51.250;6.778;2023-06-10T05:47:07;4.50;;;3.13;;
22829;SDS011;11581;51.250;6.778;2023-06-10T05:49:34;5.32;;;3.20;;
22829;SDS011;11581;51.250;6.778;2023-06-10T05:52:02;3.28;;;2.25;;
22829;SDS011;11581;51.250;6.778;2023-06-10T05:54:29;6.35;;;3.22;;
22829;SDS011;11581;51.250;6.778;2023-06-10T05:56:55;3.65;;;2.60;;
22829;SDS011;11581;51.250;6.778;2023-06-10T05:59:22;3.70;;;2.88;;
22829;SDS011;11581;51.250;6.778;2023-06-10T06:01:49;3.80;;;2.58;;
22829;SDS011;11581;51.250;6.778;2023-06-10T06:04:15;6.68;;;2.97;;
22829;SDS011;11581;51.250;6.778;2023-06-10T06:06:42;4.05;;;2.45;;
22829;SDS011;11581;51.250;6.778;2023-06-10T06:09:10;7.68;;;2.67;;
22829;SDS011;11581;51.250;6.778;2023-06-10T06:11:37;4.68;;;2.80;;
22829;SDS011;11581;51.250;6.778;2023-06-10T06:14:04;4.15;;;2.97;;
22829;SDS011;11581;51.250;6.778;2023-06-10T06:16:30;3.53;;;2.28;;
22829;SDS011;11581;51.250;6.778;2023-06-10T06:18:58;4.80;;;2.65;;
22829;SDS011;11581;51.250;6.778;2023-06-10T06:21:24;4.63;;;2.55;;
22829;SDS011;11581;51.250;6.778;2023-06-10T06:23:51;3.45;;;2.30;;
22829;SDS011;11581;51.250;6.778;2023-06-10T06:26:19;6.05;;;2.85;;
22829;SDS011;11581;51.250;6.778;2023-06-10T06:28:45;4.03;;;2.20;;
22829;SDS011;11581;51.250;6.778;2023-06-10T06:31:12;5.15;;;2.47;;
22829;SDS011;11581;51.250;6.778;2023-06-10T06:33:39;3.22;;;2.63;;
22829;SDS011;11581;51.250;6.778;2023-06-10T06:36:05;7.20;;;3.35;;
22829;SDS011;11581;51.250;6.778;2023-06-10T06:38:32;3.78;;;2.30;;
22829;SDS011;11581;51.250;6.778;2023-06-10T06:40:59;4.68;;;2.90;;
22829;SDS011;11581;51.250;6.778;2023-06-10T06:43:29;4.72;;;2.88;;
22829;SDS011;11581;51.250;6.778;2023-06-10T06:46:08;5.65;;;2.78;;
22829;SDS011;11581;51.250;6.778;2023-06-10T06:48:35;5.10;;;2.67;;
22829;SDS011;11581;51.250;6.778;2023-06-10T06:51:02;3.00;;;2.17;;
22829;SDS011;11581;51.250;6.778;2023-06-10T06:53:29;3.72;;;2.42;;
22829;SDS011;11581;51.250;6.778;2023-06-10T06:55:55;3.22;;;2.30;;
22829;SDS011;11581;51.250;6.778;2023-06-10T06:58:22;3.28;;;2.40;;
22829;SDS011;11581;51.250;6.778;2023-06-10T07:00:50;6.03;;;2.53;;
22829;SDS011;11581;51.250;6.778;2023-06-10T07:03:16;4.50;;;2.25;;
22829;SDS011;11581;51.250;6.778;2023-06-10T07:05:43;4.30;;;2.42;;
22829;SDS011;11581;51.250;6.778;2023-06-10T07:08:09;4.43;;;2.60;;
22829;SDS011;11581;51.250;6.778;2023-06-10T07:10:37;3.08;;;2.30;;
22829;SDS011;11581;51.250;6.778;2023-06-10T07:13:04;5.18;;;2.40;;
22829;SDS011;11581;51.250;6.778;2023-06-10T07:15:30;4.25;;;2.33;;
22829;SDS011;11581;51.250;6.778;2023-06-10T07:17:59;2.90;;;2.33;;
22829;SDS011;11581;51.250;6.778;2023-06-10T07:20:25;4.05;;;2.60;;
22829;SDS011;11581;51.250;6.778;2023-06-10T07:22:52;3.58;;;2.20;;
22829;SDS011;11581;51.250;6.778;2023-06-10T07:25:18;4.22;;;3.00;;
22829;SDS011;11581;51.250;6.778;2023-06-10T07:27:45;8.88;;;2.60;;
22829;SDS011;11581;51.250;6.778;2023-06-10T07:30:12;4.55;;;2.78;;
22829;SDS011;11581;51.250;6.778;2023-06-10T07:32:39;2.90;;;2.20;;
22829;SDS011;11581;51.250;6.778;2023-06-10T07:35:08;4.78;;;2.90;;
22829;SDS011;11581;51.250;6.778;2023-06-10T07:37:36;5.32;;;2.83;;
22829;SDS011;11581;51.250;6.778;2023-06-10T07:40:02;3.90;;;2.30;;
22829;SDS011;11581;51.250;6.778;2023-06-10T07:42:30;7.68;;;3.03;;
22829;SDS011;11581;51.250;6.778;2023-06-10T07:44:57;5.50;;;2.53;;
22829;SDS011;11581;51.250;6.778;2023-06-10T07:47:24;3.85;;;2.35;;
22829;SDS011;11581;51.250;6.778;2023-06-10T07:49:51;7.32;;;2.60;;
22829;SDS011;11581;51.250;6.778;2023-06-10T07:52:19;3.83;;;2.50;;
22829;SDS011;11581;51.250;6.778;2023-06-10T07:54:46;3.17;;;2.47;;
22829;SDS011;11581;51.250;6.778;2023-06-10T07:57:12;4.70;;;2.88;;
22829;SDS011;11581;51.250;6.778;2023-06-10T07:59:39;2.78;;;2.20;;
22829;SDS011;11581;51.250;6.778;2023-06-10T08:02:05;2.95;;;2.15;;
22829;SDS011;11581;51.250;6.778;2023-06-10T08:04:32;4.43;;;2.22;;
22829;SDS011;11581;51.250;6.778;2023-06-10T08:07:00;3.85;;;2.55;;
22829;SDS011;11581;51.250;6.778;2023-06-10T08:09:29;4.75;;;2.33;;
22829;SDS011;11581;51.250;6.778;2023-06-10T08:11:55;4.78;;;2.53;;
22829;SDS011;11581;51.250;6.778;2023-06-10T08:14:22;3.42;;;2.58;;
22829;SDS011;11581;51.250;6.778;2023-06-10T08:16:49;9.13;;;3.17;;
22829;SDS011;11581;51.250;6.778;2023-06-10T08:19:15;3.53;;;2.55;;
22829;SDS011;11581;51.250;6.778;2023-06-10T08:21:42;3.83;;;2.08;;
22829;SDS011;11581;51.250;6.778;2023-06-10T08:24:08;4.40;;;2.47;;
22829;SDS011;11581;51.250;6.778;2023-06-10T08:26:37;5.05;;;2.70;;
22829;SDS011;11581;51.250;6.778;2023-06-10T08:29:04;11.40;;;2.30;;
22829;SDS011;11581;51.250;6.778;2023-06-10T08:31:30;4.70;;;2.50;;
22829;SDS011;11581;51.250;6.778;2023-06-10T08:33:57;4.32;;;2.15;;
22829;SDS011;11581;51.250;6.778;2023-06-10T08:36:24;3.58;;;2.17;;
22829;SDS011;11581;51.250;6.778;2023-06-10T08:38:50;4.53;;;2.38;;
22829;SDS011;11581;51.250;6.778;2023-06-10T08:41:17;3.95;;;2.22;;
22829;SDS011;11581;51.250;6.778;2023-06-10T08:43:48;2.92;;;2.28;;
22829;SDS011;11581;51.250;6.778;2023-06-10T08:46:25;3.70;;;2.33;;
22829;SDS011;11581;51.250;6.778;2023-06-10T08:48:52;4.15;;;2.53;;
22829;SDS011;11581;51.250;6.778;2023-06-10T08:51:21;2.63;;;2.00;;
22829;SDS011;11581;51.250;6.778;2023-06-10T08:53:53;7.53;;;2.08;;
22829;SDS011;11581;51.250;6.778;2023-06-10T08:56:26;2.38;;;2.03;;
22829;SDS011;11581;51.250;6.778;2023-06-10T08:58:57;5.30;;;2.10;;
22829;SDS011;11581;51.250;6.778;2023-06-10T09:01:23;5.90;;;2.13;;
22829;SDS011;11581;51.250;6.778;2023-06-10T09:03:52;4.57;;;2.55;;
22829;SDS011;11581;51.250;6.778;2023-06-10T09:06:19;4.50;;;2.28;;
22829;SDS011;11581;51.250;6.778;2023-06-10T09:08:46;3.97;;;2.40;;
22829;SDS011;11581;51.250;6.778;2023-06-10T09:11:12;4.45;;;2.70;;
22829;SDS011;11581;51.250;6.778;2023-06-10T09:13:39;3.42;;;2.53;;
22829;SDS011;11581;51.250;6.778;2023-06-10T09:16:07;4.88;;;2.38;;
22829;SDS011;11581;51.250;6.778;2023-06-10T09:18:36;4.38;;;2.20;;
22829;SDS011;11581;51.250;6.778;2023-06-10T09:21:03;5.05;;;2.00;;
22829;SDS011;11581;51.250;6.778;2023-06-10T09:23:30;3.50;;;2.00;;
22829;SDS011;11581;51.250;6.778;2023-06-10T09:25:57;4.57;;;2.55;;
22829;SDS011;11581;51.250;6.778;2023-06-10T09:28:24;4.78;;;2.50;;
22829;SDS011;11581;51.250;6.778;2023-06-10T09:31:01;9.50;;;3.00;;
22829;SDS011;11581;51.250;6.778;2023-06-10T09:33:30;9.73;;;2.70;;
22829;SDS011;11581;51.250;6.778;2023-06-10T09:35:57;3.20;;;2.47;;
22829;SDS011;11581;51.250;6.778;2023-06-10T09:38:29;3.17;;;2.30;;
22829;SDS011;11581;51.250;6.778;2023-06-10T09:40:56;4.85;;;2.58;;
22829;SDS011;11581;51.250;6.778;2023-06-10T09:43:23;5.18;;;2.60;;
22829;SDS011;11581;51.250;6.778;2023-06-10T09:46:06;6.13;;;2.50;;
22829;SDS011;11581;51.250;6.778;2023-06-10T09:48:37;5.05;;;2.63;;
22829;SDS011;11581;51.250;6.778;2023-06-10T09:51:08;4.22;;;2.65;;
22829;SDS011;11581;51.250;6.778;2023-06-10T09:53:36;3.28;;;2.38;;
22829;SDS011;11581;51.250;6.778;2023-06-10T09:56:03;5.25;;;2.40;;
22829;SDS011;11581;51.250;6.778;2023-06-10T09:58:34;3.33;;;2.45;;
22829;SDS011;11581;51.250;6.778;2023-06-10T10:01:04;4.45;;;2.20;;
22829;SDS011;11581;51.250;6.778;2023-06-10T10:03:31;3.40;;;2.35;;
22829;SDS011;11581;51.250;6.778;2023-06-10T10:05:59;5.47;;;2.50;;
22829;SDS011;11581;51.250;6.778;2023-06-10T10:08:26;6.53;;;2.53;;
22829;SDS011;11581;51.250;6.778;2023-06-10T10:10:53;3.85;;;2.55;;
22829;SDS011;11581;51.250;6.778;2023-06-10T10:13:22;12.60;;;3.17;;
22829;SDS011;11581;51.250;6.778;2023-06-10T10:15:50;3.28;;;2.45;;
22829;SDS011;11581;51.250;6.778;2023-06-10T10:18:17;3.60;;;2.22;;
22829;SDS011;11581;51.250;6.778;2023-06-10T10:20:49;5.72;;;2.25;;
22829;SDS011;11581;51.250;6.778;2023-06-10T10:23:20;4.20;;;1.98;;
22829;SDS011;11581;51.250;6.778;2023-06-10T10:25:51;3.45;;;2.25;;
22829;SDS011;11581;51.250;6.778;2023-06-10T10:28:19;4.80;;;2.20;;
22829;SDS011;11581;51.250;6.778;2023-06-10T10:30:52;3.60;;;2.38;;
22829;SDS011;11581;51.250;6.778;2023-06-10T10:33:22;3.97;;;2.47;;
22829;SDS011;11581;51.250;6.778;2023-06-10T10:38:22;3.30;;;1.90;;
22829;SDS011;11581;51.250;6.778;2023-06-10T10:40:49;4.32;;;2.38;;
22829;SDS011;11581;51.250;6.778;2023-06-10T10:43:16;3.38;;;2.40;;
22829;SDS011;11581;51.250;6.778;2023-06-10T10:45:45;4.30;;;2.58;;
22829;SDS011;11581;51.250;6.778;2023-06-10T10:48:12;5.60;;;2.58;;
22829;SDS011;11581;51.250;6.778;2023-06-10T10:50:40;5.10;;;2.40;;
22829;SDS011;11581;51.250;6.778;2023-06-10T10:53:06;3.85;;;2.28;;
22829;SDS011;11581;51.250;6.778;2023-06-10T10:55:35;3.58;;;2.75;;
22829;SDS011;11581;51.250;6.778;2023-06-10T10:58:03;3.08;;;2.22;;
22829;SDS011;11581;51.250;6.778;2023-06-10T11:00:30;3.50;;;2.40;;
22829;SDS011;11581;51.250;6.778;2023-06-10T11:02:59;6.50;;;2.63;;
22829;SDS011;11581;51.250;6.778;2023-06-10T11:05:31;4.95;;;2.97;;
22829;SDS011;11581;51.250;6.778;2023-06-10T11:08:02;6.32;;;2.22;;
22829;SDS011;11581;51.250;6.778;2023-06-10T11:10:30;3.58;;;2.55;;
22829;SDS011;11581;51.250;6.778;2023-06-10T11:12:59;4.68;;;2.92;;
22829;SDS011;11581;51.250;6.778;2023-06-10T11:15:26;3.78;;;2.30;;
22829;SDS011;11581;51.250;6.778;2023-06-10T11:18:07;4.65;;;2.65;;
22829;SDS011;11581;51.250;6.778;2023-06-10T11:20:41;4.20;;;2.45;;
22829;SDS011;11581;51.250;6.778;2023-06-10T11:26:09;3.70;;;2.60;;
22829;SDS011;11581;51.250;6.778;2023-06-10T11:28:41;4.05;;;2.42;;
22829;SDS011;11581;51.250;6.778;2023-06-10T11:31:27;4.25;;;2.25;;
22829;SDS011;11581;51.250;6.778;2023-06-10T11:33:56;3.55;;;2.53;;
22829;SDS011;11581;51.250;6.778;2023-06-10T11:36:24;4.85;;;2.30;;
22829;SDS011;11581;51.250;6.778;2023-06-10T11:38:53;3.92;;;2.60;;
22829;SDS011;11581;51.250;6.778;2023-06-10T11:41:21;4.72;;;3.10;;
22829;SDS011;11581;51.250;6.778;2023-06-10T11:43:51;4.15;;;2.75;;
22829;SDS011;11581;51.250;6.778;2023-06-10T11:46:19;3.53;;;2.28;;
22829;SDS011;11581;51.250;6.778;2023-06-10T11:48:48;10.15;;;2.15;;
22829;SDS011;11581;51.250;6.778;2023-06-10T11:51:15;4.60;;;2.47;;
22829;SDS011;11581;51.250;6.778;2023-06-10T11:53:43;4.88;;;2.58;;
22829;SDS011;11581;51.250;6.778;2023-06-10T11:56:10;4.57;;;2.20;;
22829;SDS011;11581;51.250;6.778;2023-06-10T11:58:37;3.13;;;2.30;;
22829;SDS011;11581;51.250;6.778;2023-06-10T12:01:11;3.35;;;2.38;;
22829;SDS011;11581;51.250;6.778;2023-06-10T12:03:46;5.18;;;2.60;;
22829;SDS011;11581;51.250;6.778;2023-06-10T12:06:12;6.00;;;2.78;;
22829;SDS011;11581;51.250;6.778;2023-06-10T12:08:41;4.57;;;2.60;;
22829;SDS011;11581;51.250;6.778;2023-06-10T12:11:08;4.50;;;2.40;;
22829;SDS011;11581;51.250;6.778;2023-06-10T12:13:35;4.65;;;2.42;;
22829;SDS011;11581;51.250;6.778;2023-06-10T12:16:07;6.47;;;2.70;;
22829;SDS011;11581;51.250;6.778;2023-06-10T12:18:36;7.82;;;2.65;;
22829;SDS011;11581;51.250;6.778;2023-06-10T12:21:03;4.75;;;3.10;;
22829;SDS011;11581;51.250;6.778;2023-06-10T12:23:41;3.63;;;2.47;;
22829;SDS011;11581;51.250;6.778;2023-06-10T12:26:33;12.25;;;3.38;;
22829;SDS011;11581;51.250;6.778;2023-06-10T12:29:01;6.13;;;2.85;;
22829;SDS011;11581;51.250;6.778;2023-06-10T12:31:27;3.78;;;2.40;;
22829;SDS011;11581;51.250;6.778;2023-06-10T12:34:08;6.68;;;2.55;;
22829;SDS011;11581;51.250;6.778;2023-06-10T12:36:35;4.35;;;2.65;;
22829;SDS011;11581;51.250;6.778;2023-06-10T12:39:04;10.48;;;5.32;;
22829;SDS011;11581;51.250;6.778;2023-06-10T12:41:31;6.78;;;3.13;;
22829;SDS011;11581;51.250;6.778;2023-06-10T12:43:59;4.90;;;2.75;;
22829;SDS011;11581;51.250;6.778;2023-06-10T12:46:25;4.75;;;2.45;;
22829;SDS011;11581;51.250;6.778;2023-06-10T12:49:02;4.95;;;3.13;;
22829;SDS011;11581;51.250;6.778;2023-06-10T12:51:30;6.05;;;2.70;;
22829;SDS011;11581;51.250;6.778;2023-06-10T12:53:57;4.65;;;3.00;;
22829;SDS011;11581;51.250;6.778;2023-06-10T12:56:23;4.15;;;2.75;;
22829;SDS011;11581;51.250;6.778;2023-06-10T12:58:50;5.25;;;2.90;;
22829;SDS011;11581;51.250;6.778;2023-06-10T13:01:19;4.25;;;3.08;;
22829;SDS011;11581;51.250;6.778;2023-06-10T13:03:45;3.55;;;2.60;;
22829;SDS011;11581;51.250;6.778;2023-06-10T13:06:13;4.03;;;2.53;;
22829;SDS011;11581;51.250;6.778;2023-06-10T13:08:41;5.35;;;3.45;;
22829;SDS011;11581;51.250;6.778;2023-06-10T13:11:07;7.13;;;2.38;;
22829;SDS011;11581;51.250;6.778;2023-06-10T13:13:36;3.25;;;2.25;;
22829;SDS011;11581;51.250;6.778;2023-06-10T13:16:03;5.82;;;2.38;;
22829;SDS011;11581;51.250;6.778;2023-06-10T13:18:29;5.00;;;2.60;;
22829;SDS011;11581;51.250;6.778;2023-06-10T13:21:02;6.10;;;2.90;;
22829;SDS011;11581;51.250;6.778;2023-06-10T13:23:29;5.90;;;2.58;;
22829;SDS011;11581;51.250;6.778;2023-06-10T13:25:58;3.30;;;2.70;;
22829;SDS011;11581;51.250;6.778;2023-06-10T13:28:25;3.72;;;2.78;;
22829;SDS011;11581;51.250;6.778;2023-06-10T13:30:51;10.98;;;2.95;;
22829;SDS011;11581;51.250;6.778;2023-06-10T13:33:18;4.75;;;2.70;;
22829;SDS011;11581;51.250;6.778;2023-06-10T13:35:44;6.30;;;3.08;;
22829;SDS011;11581;51.250;6.778;2023-06-10T13:38:11;5.95;;;3.92;;
22829;SDS011;11581;51.250;6.778;2023-06-10T13:40:38;5.63;;;3.17;;
22829;SDS011;11581;51.250;6.778;2023-06-10T13:43:06;4.65;;;2.88;;
22829;SDS011;11581;51.250;6.778;2023-06-10T13:45:34;5.65;;;2.35;;
22829;SDS011;11581;51.250;6.778;2023-06-10T13:48:01;7.00;;;2.75;;
22829;SDS011;11581;51.250;6.778;2023-06-10T13:50:29;8.68;;;3.95;;
22829;SDS011;11581;51.250;6.778;2023-06-10T13:52:55;5.88;;;3.22;;
22829;SDS011;11581;51.250;6.778;2023-06-10T13:55:22;4.55;;;3.00;;
22829;SDS011;11581;51.250;6.778;2023-06-10T13:57:50;4.32;;;2.88;;
22829;SDS011;11581;51.250;6.778;2023-06-10T14:00:18;4.68;;;2.53;;
22829;SDS011;11581;51.250;6.778;2023-06-10T14:02:45;6.65;;;2.70;;
22829;SDS011;11581;51.250;6.778;2023-06-10T14:05:11;3.83;;;2.75;;
22829;SDS011;11581;51.250;6.778;2023-06-10T14:07:38;5.38;;;2.78;;
22829;SDS011;11581;51.250;6.778;2023-06-10T14:10:06;5.07;;;2.63;;
22829;SDS011;11581;51.250;6.778;2023-06-10T14:12:33;3.65;;;2.70;;
22829;SDS011;11581;51.250;6.778;2023-06-10T14:15:00;7.18;;;2.22;;
22829;SDS011;11581;51.250;6.778;2023-06-10T14:17:29;4.60;;;2.95;;
22829;SDS011;11581;51.250;6.778;2023-06-10T14:19:56;5.82;;;2.78;;
22829;SDS011;11581;51.250;6.778;2023-06-10T14:22:22;6.45;;;3.53;;
22829;SDS011;11581;51.250;6.778;2023-06-10T14:24:49;6.43;;;2.95;;
22829;SDS011;11581;51.250;6.778;2023-06-10T14:27:15;4.07;;;2.55;;
22829;SDS011;11581;51.250;6.778;2023-06-10T14:29:42;5.35;;;2.85;;
22829;SDS011;11581;51.250;6.778;2023-06-10T14:32:08;5.35;;;2.83;;
22829;SDS011;11581;51.250;6.778;2023-06-10T14:34:37;5.18;;;2.72;;
22829;SDS011;11581;51.250;6.778;2023-06-10T14:37:04;4.70;;;2.53;;
22829;SDS011;11581;51.250;6.778;2023-06-10T14:39:32;5.57;;;3.20;;
22829;SDS011;11581;51.250;6.778;2023-06-10T14:41:59;3.65;;;2.58;;
22829;SDS011;11581;51.250;6.778;2023-06-10T14:44:25;4.38;;;2.75;;
22829;SDS011;11581;51.250;6.778;2023-06-10T14:46:52;4.43;;;2.90;;
22829;SDS011;11581;51.250;6.778;2023-06-10T14:49:19;5.45;;;3.15;;
22829;SDS011;11581;51.250;6.778;2023-06-10T14:51:47;5.47;;;3.10;;
22829;SDS011;11581;51.250;6.778;2023-06-10T14:54:15;5.53;;;3.00;;
22829;SDS011;11581;51.250;6.778;2023-06-10T14:56:41;5.63;;;2.75;;
22829;SDS011;11581;51.250;6.778;2023-06-10T14:59:08;3.45;;;2.63;;